sensor_id;sensor_type;location;lat;lon;timestamp;P1;durP1;ratioP1;P2;durP2;ratioP2
61393;SDS011;48555;50.952;-0.120;2023-07-20T00:00:25;2.78;;;1.33;;
61393;SDS011;48555;50.952;-0.120;2023-07-20T00:02:50;2.63;;;1.15;;
61393;SDS011;48555;50.952;-0.120;2023-07-20T00:05:16;4.55;;;1.58;;
61393;SDS011;48555;50.952;-0.120;2023-07-20T00:07:43;1.45;;;1.00;;
61393;SDS011;48555;50.952;-0.120;2023-07-20T00:10:09;3.47;;;1.50;;
61393;SDS011;48555;50.952;-0.120;2023-07-20T00:12:34;2.67;;;1.40;;
61393;SDS011;48555;50.952;-0.120;2023-07-20T00:15:00;3.15;;;1.40;;
61393;SDS011;48555;50.952;-0.120;2023-07-20T00:17:25;2.55;;;1.10;;
61393;SDS011;48555;50.952;-0.120;2023-07-20T00:19:51;4.05;;;1.58;;
61393;SDS011;48555;50.952;-0.120;2023-07-20T00:22:16;3.35;;;1.38;;
61393;SDS011;48555;50.952;-0.120;2023-07-20T00:24:42;2.13;;;1.40;;
61393;SDS011;48555;50.952;-0.120;2023-07-20T00:27:07;1.95;;;1.30;;
61393;SDS011;48555;50.952;-0.120;2023-07-20T00:29:32;2.70;;;1.20;;
61393;SDS011;48555;50.952;-0.120;2023-07-20T00:31:58;3.30;;;1.27;;
61393;SDS011;48555;50.952;-0.120;2023-07-20T00:34:24;1.52;;;1.17;;
61393;SDS011;48555;50.952;-0.120;2023-07-20T00:36:49;2.05;;;1.13;;
61393;SDS011;48555;50.952;-0.120;2023-07-20T00:39:15;1.92;;;1.67;;
61393;SDS011;48555;50.952;-0.120;2023-07-20T00:41:40;2.60;;;1.10;;
61393;SDS011;48555;50.952;-0.120;2023-07-20T00:44:06;3.50;;;1.60;;
61393;SDS011;48555;50.952;-0.120;2023-07-20T00:46:31;3.22;;;1.50;;
61393;SDS011;48555;50.952;-0.120;2023-07-20T00:48:57;3.80;;;1.48;;
61393;SDS011;48555;50.952;-0.120;2023-07-20T00:51:24;1.77;;;1.23;;
61393;SDS011;48555;50.952;-0.120;2023-07-20T00:53:51;4.55;;;1.30;;
61393;SDS011;48555;50.952;-0.120;2023-07-20T00:56:17;3.40;;;1.50;;
61393;SDS011;48555;50.952;-0.120;2023-07-20T00:58:43;5.28;;;1.67;;
61393;SDS011;48555;50.952;-0.120;2023-07-20T01:01:09;2.28;;;1.50;;
61393;SDS011;48555;50.952;-0.120;2023-07-20T01:03:34;3.38;;;1.52;;
61393;SDS011;48555;50.952;-0.120;2023-07-20T01:06:15;1.80;;;1.30;;
61393;SDS011;48555;50.952;-0.120;2023-07-20T01:14:01;2.63;;;1.70;;
61393;SDS011;48555;50.952;-0.120;2023-07-20T01:16:27;3.25;;;1.65;;
61393;SDS011;48555;50.952;-0.120;2023-07-20T01:18:54;3.30;;;1.75;;
61393;SDS011;48555;50.952;-0.120;2023-07-20T01:21:25;2.97;;;1.52;;
61393;SDS011;48555;50.952;-0.120;2023-07-20T01:30:07;2.05;;;1.30;;
61393;SDS011;48555;50.952;-0.120;2023-07-20T01:32:40;4.22;;;1.80;;
61393;SDS011;48555;50.952;-0.120;2023-07-20T01:35:10;3.40;;;1.52;;
61393;SDS011;48555;50.952;-0.120;2023-07-20T01:37:39;2.28;;;1.40;;
61393;SDS011;48555;50.952;-0.120;2023-07-20T01:40:07;2.58;;;1.63;;
61393;SDS011;48555;50.952;-0.120;2023-07-20T01:42:34;1.75;;;1.23;;
61393;SDS011;48555;50.952;-0.120;2023-07-20T01:45:00;4.78;;;1.45;;
61393;SDS011;48555;50.952;-0.120;2023-07-20T01:47:25;2.42;;;1.45;;
61393;SDS011;48555;50.952;-0.120;2023-07-20T01:49:51;2.78;;;1.55;;
61393;SDS011;48555;50.952;-0.120;2023-07-20T01:52:16;4.72;;;1.70;;
61393;SDS011;48555;50.952;-0.120;2023-07-20T01:54:41;2.60;;;1.27;;
61393;SDS011;48555;50.952;-0.120;2023-07-20T01:57:07;2.78;;;1.50;;
61393;SDS011;48555;50.952;-0.120;2023-07-20T01:59:32;3.75;;;1.70;;
61393;SDS011;48555;50.952;-0.120;2023-07-20T02:01:57;2.30;;;1.52;;
61393;SDS011;48555;50.952;-0.120;2023-07-20T02:04:23;1.67;;;1.50;;
61393;SDS011;48555;50.952;-0.120;2023-07-20T02:06:48;3.45;;;1.80;;
61393;SDS011;48555;50.952;-0.120;2023-07-20T02:09:13;3.30;;;1.63;;
61393;SDS011;48555;50.952;-0.120;2023-07-20T02:11:39;2.42;;;1.52;;
61393;SDS011;48555;50.952;-0.120;2023-07-20T02:14:04;3.17;;;1.63;;
61393;SDS011;48555;50.952;-0.120;2023-07-20T02:16:29;4.60;;;1.60;;
61393;SDS011;48555;50.952;-0.120;2023-07-20T02:18:55;4.40;;;1.98;;
61393;SDS011;48555;50.952;-0.120;2023-07-20T02:21:21;2.58;;;1.50;;
61393;SDS011;48555;50.952;-0.120;2023-07-20T02:23:47;2.65;;;1.80;;
61393;SDS011;48555;50.952;-0.120;2023-07-20T02:26:12;3.83;;;1.83;;
61393;SDS011;48555;50.952;-0.120;2023-07-20T02:28:38;5.40;;;1.70;;
61393;SDS011;48555;50.952;-0.120;2023-07-20T02:31:03;4.55;;;1.80;;
61393;SDS011;48555;50.952;-0.120;2023-07-20T02:33:28;3.15;;;1.55;;
61393;SDS011;48555;50.952;-0.120;2023-07-20T02:35:54;2.63;;;1.60;;
61393;SDS011;48555;50.952;-0.120;2023-07-20T02:38:20;2.35;;;1.67;;
61393;SDS011;48555;50.952;-0.120;2023-07-20T02:40:45;4.35;;;2.00;;
61393;SDS011;48555;50.952;-0.120;2023-07-20T02:43:11;3.65;;;2.00;;
61393;SDS011;48555;50.952;-0.120;2023-07-20T02:45:39;2.35;;;1.45;;
61393;SDS011;48555;50.952;-0.120;2023-07-20T02:48:05;2.67;;;1.75;;
61393;SDS011;48555;50.952;-0.120;2023-07-20T02:50:33;5.93;;;1.80;;
61393;SDS011;48555;50.952;-0.120;2023-07-20T02:52:59;2.90;;;1.75;;
61393;SDS011;48555;50.952;-0.120;2023-07-20T02:55:25;3.08;;;1.60;;
61393;SDS011;48555;50.952;-0.120;2023-07-20T02:57:50;3.72;;;1.80;;
61393;SDS011;48555;50.952;-0.120;2023-07-20T03:00:15;3.80;;;1.92;;
61393;SDS011;48555;50.952;-0.120;2023-07-20T03:02:41;5.07;;;1.95;;
61393;SDS011;48555;50.952;-0.120;2023-07-20T03:05:06;3.67;;;2.03;;
61393;SDS011;48555;50.952;-0.120;2023-07-20T03:07:32;3.35;;;1.60;;
61393;SDS011;48555;50.952;-0.120;2023-07-20T03:09:58;3.25;;;2.00;;
61393;SDS011;48555;50.952;-0.120;2023-07-20T03:12:23;4.22;;;2.03;;
61393;SDS011;48555;50.952;-0.120;2023-07-20T03:14:49;3.28;;;1.92;;
61393;SDS011;48555;50.952;-0.120;2023-07-20T03:17:15;4.38;;;1.90;;
61393;SDS011;48555;50.952;-0.120;2023-07-20T03:19:40;3.50;;;1.73;;
61393;SDS011;48555;50.952;-0.120;2023-07-20T03:22:06;3.05;;;1.83;;
61393;SDS011;48555;50.952;-0.120;2023-07-20T03:24:31;3.20;;;1.70;;
61393;SDS011;48555;50.952;-0.120;2023-07-20T03:26:57;2.58;;;1.75;;
61393;SDS011;48555;50.952;-0.120;2023-07-20T03:29:23;2.53;;;1.60;;
61393;SDS011;48555;50.952;-0.120;2023-07-20T03:31:48;3.25;;;1.90;;
61393;SDS011;48555;50.952;-0.120;2023-07-20T03:34:14;3.55;;;1.75;;
61393;SDS011;48555;50.952;-0.120;2023-07-20T03:36:39;5.55;;;2.30;;
61393;SDS011;48555;50.952;-0.120;2023-07-20T03:39:04;2.95;;;1.90;;
61393;SDS011;48555;50.952;-0.120;2023-07-20T03:41:30;3.90;;;1.80;;
61393;SDS011;48555;50.952;-0.120;2023-07-20T03:43:55;3.53;;;1.88;;
61393;SDS011;48555;50.952;-0.120;2023-07-20T03:46:20;5.32;;;1.80;;
61393;SDS011;48555;50.952;-0.120;2023-07-20T03:48:46;2.97;;;1.80;;
61393;SDS011;48555;50.952;-0.120;2023-07-20T03:51:11;2.47;;;1.90;;
61393;SDS011;48555;50.952;-0.120;2023-07-20T03:53:36;3.00;;;1.67;;
61393;SDS011;48555;50.952;-0.120;2023-07-20T03:56:02;2.67;;;1.75;;
61393;SDS011;48555;50.952;-0.120;2023-07-20T03:58:27;3.88;;;1.65;;
61393;SDS011;48555;50.952;-0.120;2023-07-20T04:00:54;2.88;;;1.70;;
61393;SDS011;48555;50.952;-0.120;2023-07-20T04:03:20;1.52;;;1.35;;
61393;SDS011;48555;50.952;-0.120;2023-07-20T04:05:45;2.78;;;1.45;;
61393;SDS011;48555;50.952;-0.120;2023-07-20T04:08:11;3.47;;;1.75;;
61393;SDS011;48555;50.952;-0.120;2023-07-20T04:10:37;3.35;;;1.65;;
61393;SDS011;48555;50.952;-0.120;2023-07-20T04:13:03;3.13;;;1.70;;
61393;SDS011;48555;50.952;-0.120;2023-07-20T04:15:28;3.78;;;2.10;;
61393;SDS011;48555;50.952;-0.120;2023-07-20T04:17:54;2.90;;;1.63;;
61393;SDS011;48555;50.952;-0.120;2023-07-20T04:20:20;3.08;;;1.83;;
61393;SDS011;48555;50.952;-0.120;2023-07-20T04:22:46;3.05;;;1.88;;
61393;SDS011;48555;50.952;-0.120;2023-07-20T04:25:11;3.58;;;1.90;;
61393;SDS011;48555;50.952;-0.120;2023-07-20T04:27:36;3.70;;;1.77;;
61393;SDS011;48555;50.952;-0.120;2023-07-20T04:30:02;3.22;;;1.88;;
61393;SDS011;48555;50.952;-0.120;2023-07-20T04:32:28;2.75;;;1.92;;
61393;SDS011;48555;50.952;-0.120;2023-07-20T04:34:54;2.10;;;1.55;;
61393;SDS011;48555;50.952;-0.120;2023-07-20T04:37:19;3.00;;;1.77;;
61393;SDS011;48555;50.952;-0.120;2023-07-20T04:39:45;3.63;;;2.00;;
61393;SDS011;48555;50.952;-0.120;2023-07-20T04:42:11;3.35;;;2.00;;
61393;SDS011;48555;50.952;-0.120;2023-07-20T04:44:36;3.47;;;1.92;;
61393;SDS011;48555;50.952;-0.120;2023-07-20T04:47:01;3.22;;;2.00;;
61393;SDS011;48555;50.952;-0.120;2023-07-20T04:49:28;4.18;;;1.75;;
61393;SDS011;48555;50.952;-0.120;2023-07-20T04:51:53;2.85;;;1.83;;
61393;SDS011;48555;50.952;-0.120;2023-07-20T04:54:19;4.60;;;2.03;;
61393;SDS011;48555;50.952;-0.120;2023-07-20T04:56:45;4.30;;;1.70;;
61393;SDS011;48555;50.952;-0.120;2023-07-20T04:59:10;3.08;;;1.88;;
61393;SDS011;48555;50.952;-0.120;2023-07-20T05:01:35;3.03;;;1.88;;
61393;SDS011;48555;50.952;-0.120;2023-07-20T05:04:01;3.15;;;2.00;;
61393;SDS011;48555;50.952;-0.120;2023-07-20T05:06:27;3.00;;;2.10;;
61393;SDS011;48555;50.952;-0.120;2023-07-20T05:08:52;4.10;;;2.25;;
61393;SDS011;48555;50.952;-0.120;2023-07-20T05:11:17;2.55;;;1.58;;
61393;SDS011;48555;50.952;-0.120;2023-07-20T05:13:43;3.28;;;1.77;;
61393;SDS011;48555;50.952;-0.120;2023-07-20T05:16:08;2.78;;;1.70;;
61393;SDS011;48555;50.952;-0.120;2023-07-20T05:18:33;2.65;;;1.75;;
61393;SDS011;48555;50.952;-0.120;2023-07-20T05:20:59;4.85;;;1.80;;
61393;SDS011;48555;50.952;-0.120;2023-07-20T05:23:24;3.60;;;2.00;;
61393;SDS011;48555;50.952;-0.120;2023-07-20T05:25:56;3.85;;;1.90;;
61393;SDS011;48555;50.952;-0.120;2023-07-20T05:28:22;2.95;;;1.80;;
61393;SDS011;48555;50.952;-0.120;2023-07-20T05:30:48;2.38;;;1.77;;
61393;SDS011;48555;50.952;-0.120;2023-07-20T05:33:13;3.67;;;2.05;;
61393;SDS011;48555;50.952;-0.120;2023-07-20T05:35:39;5.25;;;2.17;;
61393;SDS011;48555;50.952;-0.120;2023-07-20T05:38:04;3.70;;;2.15;;
61393;SDS011;48555;50.952;-0.120;2023-07-20T05:40:31;4.95;;;1.85;;
61393;SDS011;48555;50.952;-0.120;2023-07-20T05:42:57;3.63;;;2.00;;
61393;SDS011;48555;50.952;-0.120;2023-07-20T05:45:22;2.40;;;1.70;;
61393;SDS011;48555;50.952;-0.120;2023-07-20T05:47:48;2.90;;;1.70;;
61393;SDS011;48555;50.952;-0.120;2023-07-20T05:50:13;3.72;;;1.83;;
61393;SDS011;48555;50.952;-0.120;2023-07-20T05:52:39;2.55;;;1.90;;
61393;SDS011;48555;50.952;-0.120;2023-07-20T05:55:05;3.25;;;1.75;;
61393;SDS011;48555;50.952;-0.120;2023-07-20T05:57:31;2.65;;;1.60;;
61393;SDS011;48555;50.952;-0.120;2023-07-20T05:59:56;3.08;;;1.70;;
61393;SDS011;48555;50.952;-0.120;2023-07-20T06:02:22;4.18;;;1.88;;
61393;SDS011;48555;50.952;-0.120;2023-07-20T06:04:47;3.38;;;1.90;;
61393;SDS011;48555;50.952;-0.120;2023-07-20T06:07:12;4.53;;;1.98;;
61393;SDS011;48555;50.952;-0.120;2023-07-20T06:09:38;2.97;;;1.90;;
61393;SDS011;48555;50.952;-0.120;2023-07-20T06:12:03;3.10;;;1.73;;
61393;SDS011;48555;50.952;-0.120;2023-07-20T06:14:29;2.08;;;1.60;;
61393;SDS011;48555;50.952;-0.120;2023-07-20T06:16:54;3.10;;;1.67;;
61393;SDS011;48555;50.952;-0.120;2023-07-20T06:19:20;4.00;;;1.92;;
61393;SDS011;48555;50.952;-0.120;2023-07-20T06:21:47;2.85;;;1.90;;
61393;SDS011;48555;50.952;-0.120;2023-07-20T06:24:12;3.13;;;1.65;;
61393;SDS011;48555;50.952;-0.120;2023-07-20T06:26:38;2.67;;;1.70;;
61393;SDS011;48555;50.952;-0.120;2023-07-20T06:29:07;3.85;;;1.73;;
61393;SDS011;48555;50.952;-0.120;2023-07-20T06:31:34;3.25;;;1.98;;
61393;SDS011;48555;50.952;-0.120;2023-07-20T06:34:00;3.60;;;1.85;;
61393;SDS011;48555;50.952;-0.120;2023-07-20T06:36:26;3.30;;;1.92;;
61393;SDS011;48555;50.952;-0.120;2023-07-20T06:38:51;3.38;;;1.85;;
61393;SDS011;48555;50.952;-0.120;2023-07-20T06:41:17;3.45;;;2.00;;
61393;SDS011;48555;50.952;-0.120;2023-07-20T06:43:43;3.13;;;1.70;;
61393;SDS011;48555;50.952;-0.120;2023-07-20T06:46:08;2.58;;;1.70;;
61393;SDS011;48555;50.952;-0.120;2023-07-20T06:48:33;4.80;;;1.98;;
61393;SDS011;48555;50.952;-0.120;2023-07-20T06:50:59;2.78;;;1.90;;
61393;SDS011;48555;50.952;-0.120;2023-07-20T06:53:24;3.78;;;1.88;;
61393;SDS011;48555;50.952;-0.120;2023-07-20T06:55:49;3.33;;;1.98;;
61393;SDS011;48555;50.952;-0.120;2023-07-20T06:58:15;9.95;;;2.30;;
61393;SDS011;48555;50.952;-0.120;2023-07-20T07:00:40;4.43;;;2.05;;
61393;SDS011;48555;50.952;-0.120;2023-07-20T07:03:05;3.75;;;1.88;;
61393;SDS011;48555;50.952;-0.120;2023-07-20T07:05:34;4.63;;;1.90;;
61393;SDS011;48555;50.952;-0.120;2023-07-20T07:08:01;3.63;;;2.05;;
61393;SDS011;48555;50.952;-0.120;2023-07-20T07:10:27;3.58;;;2.25;;
61393;SDS011;48555;50.952;-0.120;2023-07-20T07:12:52;4.05;;;2.30;;
61393;SDS011;48555;50.952;-0.120;2023-07-20T07:15:17;4.47;;;2.05;;
61393;SDS011;48555;50.952;-0.120;2023-07-20T07:17:43;2.70;;;1.90;;
61393;SDS011;48555;50.952;-0.120;2023-07-20T07:20:08;2.88;;;1.83;;
61393;SDS011;48555;50.952;-0.120;2023-07-20T07:22:34;2.83;;;1.80;;
61393;SDS011;48555;50.952;-0.120;2023-07-20T07:24:59;3.33;;;1.90;;
61393;SDS011;48555;50.952;-0.120;2023-07-20T07:27:24;4.05;;;1.70;;
61393;SDS011;48555;50.952;-0.120;2023-07-20T07:29:50;3.65;;;1.90;;
61393;SDS011;48555;50.952;-0.120;2023-07-20T07:32:15;4.22;;;2.33;;
61393;SDS011;48555;50.952;-0.120;2023-07-20T07:34:41;3.92;;;2.05;;
61393;SDS011;48555;50.952;-0.120;2023-07-20T07:37:06;3.65;;;2.10;;
61393;SDS011;48555;50.952;-0.120;2023-07-20T07:39:32;4.38;;;2.03;;
61393;SDS011;48555;50.952;-0.120;2023-07-20T07:41:57;5.00;;;2.10;;
61393;SDS011;48555;50.952;-0.120;2023-07-20T07:44:23;4.35;;;2.20;;
61393;SDS011;48555;50.952;-0.120;2023-07-20T07:46:48;4.32;;;2.10;;
61393;SDS011;48555;50.952;-0.120;2023-07-20T07:49:14;5.82;;;2.10;;
61393;SDS011;48555;50.952;-0.120;2023-07-20T07:51:40;4.97;;;2.08;;
61393;SDS011;48555;50.952;-0.120;2023-07-20T07:54:05;5.65;;;2.33;;
61393;SDS011;48555;50.952;-0.120;2023-07-20T07:56:30;3.40;;;2.10;;
61393;SDS011;48555;50.952;-0.120;2023-07-20T07:58:56;5.10;;;2.03;;
61393;SDS011;48555;50.952;-0.120;2023-07-20T08:01:21;6.20;;;2.63;;
61393;SDS011;48555;50.952;-0.120;2023-07-20T08:03:47;5.55;;;2.28;;
61393;SDS011;48555;50.952;-0.120;2023-07-20T08:06:13;6.65;;;2.50;;
61393;SDS011;48555;50.952;-0.120;2023-07-20T08:08:39;3.67;;;2.28;;
61393;SDS011;48555;50.952;-0.120;2023-07-20T08:11:04;7.60;;;2.28;;
61393;SDS011;48555;50.952;-0.120;2023-07-20T08:13:29;4.43;;;2.35;;
61393;SDS011;48555;50.952;-0.120;2023-07-20T08:15:55;4.75;;;2.42;;
61393;SDS011;48555;50.952;-0.120;2023-07-20T08:18:20;5.35;;;2.42;;
61393;SDS011;48555;50.952;-0.120;2023-07-20T08:20:46;4.78;;;2.40;;
61393;SDS011;48555;50.952;-0.120;2023-07-20T08:23:12;4.78;;;2.40;;
61393;SDS011;48555;50.952;-0.120;2023-07-20T08:25:38;6.35;;;2.30;;
61393;SDS011;48555;50.952;-0.120;2023-07-20T08:28:08;3.90;;;2.08;;
61393;SDS011;48555;50.952;-0.120;2023-07-20T08:30:44;3.13;;;2.00;;
61393;SDS011;48555;50.952;-0.120;2023-07-20T08:33:13;3.83;;;2.25;;
61393;SDS011;48555;50.952;-0.120;2023-07-20T08:35:40;8.20;;;2.00;;
61393;SDS011;48555;50.952;-0.120;2023-07-20T08:38:06;2.65;;;1.67;;
61393;SDS011;48555;50.952;-0.120;2023-07-20T08:40:32;4.13;;;1.85;;
61393;SDS011;48555;50.952;-0.120;2023-07-20T08:42:59;2.58;;;1.50;;
61393;SDS011;48555;50.952;-0.120;2023-07-20T08:45:28;1.92;;;1.48;;
61393;SDS011;48555;50.952;-0.120;2023-07-20T08:47:57;4.05;;;2.00;;
61393;SDS011;48555;50.952;-0.120;2023-07-20T08:50:24;2.53;;;1.67;;
61393;SDS011;48555;50.952;-0.120;2023-07-20T08:52:52;3.90;;;2.00;;
61393;SDS011;48555;50.952;-0.120;2023-07-20T08:55:18;2.28;;;1.58;;
61393;SDS011;48555;50.952;-0.120;2023-07-20T08:57:47;3.22;;;1.70;;
61393;SDS011;48555;50.952;-0.120;2023-07-20T09:00:15;2.88;;;1.65;;
61393;SDS011;48555;50.952;-0.120;2023-07-20T09:02:43;4.05;;;1.70;;
61393;SDS011;48555;50.952;-0.120;2023-07-20T09:05:10;4.95;;;1.88;;
61393;SDS011;48555;50.952;-0.120;2023-07-20T09:07:35;2.65;;;1.50;;
61393;SDS011;48555;50.952;-0.120;2023-07-20T09:10:01;2.78;;;1.60;;
61393;SDS011;48555;50.952;-0.120;2023-07-20T09:12:31;4.90;;;3.08;;
61393;SDS011;48555;50.952;-0.120;2023-07-20T09:14:57;4.07;;;2.00;;
61393;SDS011;48555;50.952;-0.120;2023-07-20T09:17:23;2.90;;;1.63;;
61393;SDS011;48555;50.952;-0.120;2023-07-20T09:19:51;2.38;;;1.33;;
61393;SDS011;48555;50.952;-0.120;2023-07-20T09:22:16;7.53;;;2.20;;
61393;SDS011;48555;50.952;-0.120;2023-07-20T09:24:42;9.68;;;2.00;;
61393;SDS011;48555;50.952;-0.120;2023-07-20T09:27:08;3.53;;;1.80;;
61393;SDS011;48555;50.952;-0.120;2023-07-20T09:29:34;3.40;;;1.35;;
61393;SDS011;48555;50.952;-0.120;2023-07-20T09:32:12;2.15;;;1.13;;
61393;SDS011;48555;50.952;-0.120;2023-07-20T09:34:37;2.22;;;1.40;;
61393;SDS011;48555;50.952;-0.120;2023-07-20T09:37:02;3.38;;;1.40;;
61393;SDS011;48555;50.952;-0.120;2023-07-20T09:39:29;3.38;;;1.70;;
61393;SDS011;48555;50.952;-0.120;2023-07-20T09:41:54;3.28;;;1.42;;
61393;SDS011;48555;50.952;-0.120;2023-07-20T09:44:24;3.22;;;1.50;;
61393;SDS011;48555;50.952;-0.120;2023-07-20T09:46:52;3.15;;;1.67;;
61393;SDS011;48555;50.952;-0.120;2023-07-20T09:49:20;3.70;;;1.40;;
61393;SDS011;48555;50.952;-0.120;2023-07-20T09:51:46;2.85;;;1.42;;
61393;SDS011;48555;50.952;-0.120;2023-07-20T09:54:11;3.10;;;1.48;;
61393;SDS011;48555;50.952;-0.120;2023-07-20T09:56:38;2.08;;;1.30;;
61393;SDS011;48555;50.952;-0.120;2023-07-20T09:59:05;1.75;;;1.40;;
61393;SDS011;48555;50.952;-0.120;2023-07-20T10:01:31;2.85;;;1.40;;
61393;SDS011;48555;50.952;-0.120;2023-07-20T10:03:58;2.05;;;1.20;;
61393;SDS011;48555;50.952;-0.120;2023-07-20T10:06:26;2.05;;;1.10;;
61393;SDS011;48555;50.952;-0.120;2023-07-20T10:08:55;1.50;;;1.20;;
61393;SDS011;48555;50.952;-0.120;2023-07-20T10:11:25;1.50;;;1.10;;
61393;SDS011;48555;50.952;-0.120;2023-07-20T10:13:54;2.90;;;1.20;;
61393;SDS011;48555;50.952;-0.120;2023-07-20T10:16:31;3.03;;;1.17;;
61393;SDS011;48555;50.952;-0.120;2023-07-20T10:19:05;2.17;;;1.35;;
61393;SDS011;48555;50.952;-0.120;2023-07-20T10:21:35;3.75;;;1.50;;
61393;SDS011;48555;50.952;-0.120;2023-07-20T10:24:05;3.50;;;1.52;;
61393;SDS011;48555;50.952;-0.120;2023-07-20T10:26:32;2.10;;;1.40;;
61393;SDS011;48555;50.952;-0.120;2023-07-20T10:28:58;2.05;;;1.35;;
61393;SDS011;48555;50.952;-0.120;2023-07-20T10:31:24;3.58;;;1.70;;
61393;SDS011;48555;50.952;-0.120;2023-07-20T10:33:51;3.15;;;1.70;;
61393;SDS011;48555;50.952;-0.120;2023-07-20T10:36:20;4.63;;;1.60;;
61393;SDS011;48555;50.952;-0.120;2023-07-20T10:38:57;3.45;;;1.30;;
61393;SDS011;48555;50.952;-0.120;2023-07-20T10:41:35;1.77;;;1.20;;
61393;SDS011;48555;50.952;-0.120;2023-07-20T10:44:05;2.58;;;1.48;;
61393;SDS011;48555;50.952;-0.120;2023-07-20T10:46:33;3.65;;;1.40;;
61393;SDS011;48555;50.952;-0.120;2023-07-20T10:49:05;11.18;;;2.60;;
61393;SDS011;48555;50.952;-0.120;2023-07-20T10:51:41;5.88;;;1.65;;
61393;SDS011;48555;50.952;-0.120;2023-07-20T10:54:09;3.70;;;1.73;;
61393;SDS011;48555;50.952;-0.120;2023-07-20T10:56:40;3.83;;;1.40;;
61393;SDS011;48555;50.952;-0.120;2023-07-20T10:59:17;4.35;;;1.60;;
61393;SDS011;48555;50.952;-0.120;2023-07-20T11:02:02;3.60;;;1.40;;
61393;SDS011;48555;50.952;-0.120;2023-07-20T11:04:46;4.75;;;1.67;;
61393;SDS011;48555;50.952;-0.120;2023-07-20T11:07:16;2.10;;;1.20;;
61393;SDS011;48555;50.952;-0.120;2023-07-20T11:09:43;3.50;;;1.55;;
61393;SDS011;48555;50.952;-0.120;2023-07-20T11:12:12;5.15;;;1.98;;
61393;SDS011;48555;50.952;-0.120;2023-07-20T11:14:43;7.55;;;1.98;;
61393;SDS011;48555;50.952;-0.120;2023-07-20T11:17:19;6.57;;;1.73;;
61393;SDS011;48555;50.952;-0.120;2023-07-20T11:19:50;2.53;;;1.25;;
61393;SDS011;48555;50.952;-0.120;2023-07-20T11:22:20;2.35;;;1.25;;
61393;SDS011;48555;50.952;-0.120;2023-07-20T11:24:47;2.88;;;1.40;;
61393;SDS011;48555;50.952;-0.120;2023-07-20T11:27:14;2.40;;;1.15;;
61393;SDS011;48555;50.952;-0.120;2023-07-20T11:29:39;2.30;;;1.30;;
61393;SDS011;48555;50.952;-0.120;2023-07-20T11:32:05;2.83;;;1.50;;
61393;SDS011;48555;50.952;-0.120;2023-07-20T11:34:31;2.55;;;1.33;;
61393;SDS011;48555;50.952;-0.120;2023-07-20T11:36:58;2.55;;;1.30;;
61393;SDS011;48555;50.952;-0.120;2023-07-20T11:39:24;12.88;;;1.52;;
61393;SDS011;48555;50.952;-0.120;2023-07-20T11:41:56;4.80;;;1.42;;
61393;SDS011;48555;50.952;-0.120;2023-07-20T11:44:26;2.30;;;1.40;;
61393;SDS011;48555;50.952;-0.120;2023-07-20T11:47:02;2.63;;;1.33;;
61393;SDS011;48555;50.952;-0.120;2023-07-20T11:49:29;4.45;;;1.27;;
61393;SDS011;48555;50.952;-0.120;2023-07-20T11:51:56;1.80;;;1.20;;
61393;SDS011;48555;50.952;-0.120;2023-07-20T11:54:22;2.42;;;1.38;;
61393;SDS011;48555;50.952;-0.120;2023-07-20T11:56:53;3.03;;;1.40;;
61393;SDS011;48555;50.952;-0.120;2023-07-20T11:59:18;2.03;;;1.30;;
61393;SDS011;48555;50.952;-0.120;2023-07-20T12:01:44;2.50;;;1.30;;
61393;SDS011;48555;50.952;-0.120;2023-07-20T12:04:09;3.30;;;1.73;;
61393;SDS011;48555;50.952;-0.120;2023-07-20T12:06:35;2.13;;;1.20;;
61393;SDS011;48555;50.952;-0.120;2023-07-20T12:09:00;2.08;;;1.20;;
61393;SDS011;48555;50.952;-0.120;2023-07-20T12:11:32;2.30;;;1.45;;
61393;SDS011;48555;50.952;-0.120;2023-07-20T12:14:04;2.72;;;1.35;;
61393;SDS011;48555;50.952;-0.120;2023-07-20T12:16:32;3.33;;;1.55;;
61393;SDS011;48555;50.952;-0.120;2023-07-20T12:19:07;2.65;;;1.52;;
61393;SDS011;48555;50.952;-0.120;2023-07-20T12:21:40;2.47;;;1.27;;
61393;SDS011;48555;50.952;-0.120;2023-07-20T12:24:07;2.50;;;1.50;;
61393;SDS011;48555;50.952;-0.120;2023-07-20T12:26:37;4.72;;;1.38;;
61393;SDS011;48555;50.952;-0.120;2023-07-20T12:29:02;2.08;;;1.40;;
61393;SDS011;48555;50.952;-0.120;2023-07-20T12:31:29;2.20;;;1.60;;
61393;SDS011;48555;50.952;-0.120;2023-07-20T12:33:56;4.85;;;1.80;;
61393;SDS011;48555;50.952;-0.120;2023-07-20T12:36:22;2.13;;;1.58;;
61393;SDS011;48555;50.952;-0.120;2023-07-20T12:38:47;2.85;;;1.55;;
61393;SDS011;48555;50.952;-0.120;2023-07-20T12:41:13;2.90;;;1.70;;
61393;SDS011;48555;50.952;-0.120;2023-07-20T12:43:42;2.53;;;1.60;;
61393;SDS011;48555;50.952;-0.120;2023-07-20T12:46:08;2.83;;;1.90;;
61393;SDS011;48555;50.952;-0.120;2023-07-20T12:48:35;3.10;;;1.83;;
61393;SDS011;48555;50.952;-0.120;2023-07-20T12:51:06;3.25;;;1.73;;
61393;SDS011;48555;50.952;-0.120;2023-07-20T12:53:32;3.33;;;1.60;;
61393;SDS011;48555;50.952;-0.120;2023-07-20T12:55:58;4.13;;;1.75;;
61393;SDS011;48555;50.952;-0.120;2023-07-20T12:58:24;2.65;;;1.63;;
61393;SDS011;48555;50.952;-0.120;2023-07-20T13:00:50;2.45;;;1.63;;
61393;SDS011;48555;50.952;-0.120;2023-07-20T13:03:15;2.88;;;1.52;;
61393;SDS011;48555;50.952;-0.120;2023-07-20T13:05:43;2.47;;;1.40;;
61393;SDS011;48555;50.952;-0.120;2023-07-20T13:08:09;2.00;;;1.40;;
61393;SDS011;48555;50.952;-0.120;2023-07-20T13:10:34;2.97;;;1.63;;
61393;SDS011;48555;50.952;-0.120;2023-07-20T13:12:59;3.13;;;1.67;;
61393;SDS011;48555;50.952;-0.120;2023-07-20T13:15:29;3.83;;;1.55;;
61393;SDS011;48555;50.952;-0.120;2023-07-20T13:20:22;3.13;;;1.45;;
61393;SDS011;48555;50.952;-0.120;2023-07-20T13:22:47;2.40;;;1.42;;
61393;SDS011;48555;50.952;-0.120;2023-07-20T13:25:13;2.78;;;1.40;;
61393;SDS011;48555;50.952;-0.120;2023-07-20T13:27:39;2.80;;;1.73;;
61393;SDS011;48555;50.952;-0.120;2023-07-20T13:30:04;3.85;;;1.73;;
61393;SDS011;48555;50.952;-0.120;2023-07-20T13:32:32;2.05;;;1.50;;
61393;SDS011;48555;50.952;-0.120;2023-07-20T13:34:58;2.75;;;1.50;;
61393;SDS011;48555;50.952;-0.120;2023-07-20T13:37:23;2.72;;;1.45;;
61393;SDS011;48555;50.952;-0.120;2023-07-20T13:39:49;3.28;;;1.65;;
61393;SDS011;48555;50.952;-0.120;2023-07-20T13:42:14;2.20;;;1.40;;
61393;SDS011;48555;50.952;-0.120;2023-07-20T13:44:40;2.92;;;1.70;;
61393;SDS011;48555;50.952;-0.120;2023-07-20T13:47:06;2.75;;;1.70;;
61393;SDS011;48555;50.952;-0.120;2023-07-20T13:49:31;4.05;;;1.70;;
61393;SDS011;48555;50.952;-0.120;2023-07-20T13:51:57;2.92;;;1.60;;
61393;SDS011;48555;50.952;-0.120;2023-07-20T13:54:23;3.25;;;1.65;;
61393;SDS011;48555;50.952;-0.120;2023-07-20T13:56:49;2.90;;;1.70;;
61393;SDS011;48555;50.952;-0.120;2023-07-20T13:59:14;3.97;;;1.63;;
61393;SDS011;48555;50.952;-0.120;2023-07-20T14:01:39;2.63;;;1.52;;
61393;SDS011;48555;50.952;-0.120;2023-07-20T14:04:05;3.30;;;1.58;;
61393;SDS011;48555;50.952;-0.120;2023-07-20T14:06:31;2.72;;;1.70;;
61393;SDS011;48555;50.952;-0.120;2023-07-20T14:08:57;3.95;;;1.73;;
61393;SDS011;48555;50.952;-0.120;2023-07-20T14:11:23;3.28;;;1.90;;
61393;SDS011;48555;50.952;-0.120;2023-07-20T14:13:49;3.00;;;1.73;;
61393;SDS011;48555;50.952;-0.120;2023-07-20T14:16:16;3.30;;;1.63;;
61393;SDS011;48555;50.952;-0.120;2023-07-20T14:18:41;4.30;;;1.48;;
61393;SDS011;48555;50.952;-0.120;2023-07-20T14:21:07;2.95;;;1.48;;
61393;SDS011;48555;50.952;-0.120;2023-07-20T14:23:33;2.25;;;1.55;;
61393;SDS011;48555;50.952;-0.120;2023-07-20T14:25:58;3.85;;;1.83;;
61393;SDS011;48555;50.952;-0.120;2023-07-20T14:28:24;4.10;;;1.60;;
61393;SDS011;48555;50.952;-0.120;2023-07-20T14:30:49;2.63;;;1.58;;
61393;SDS011;48555;50.952;-0.120;2023-07-20T14:33:15;2.88;;;1.35;;
61393;SDS011;48555;50.952;-0.120;2023-07-20T14:35:40;2.65;;;1.60;;
61393;SDS011;48555;50.952;-0.120;2023-07-20T14:38:05;2.88;;;1.73;;
61393;SDS011;48555;50.952;-0.120;2023-07-20T14:40:30;4.57;;;1.40;;
61393;SDS011;48555;50.952;-0.120;2023-07-20T14:42:56;2.20;;;1.48;;